Terminal Aerodrome Forecast
Issued by NWS

Home | Current Version | Previous Version | Text Only | Print | Product List | Glossary On
Versions: 1 2 3 4 5 6 7 8 9 10 11 12 13 14 15
000
FTUS44 KEPZ 031720
TAFTCS
TAF
KTCS 031720Z 0318/0418 12007KT P6SM SCT060 SCT120
     FM032100 18007KT P6SM BKN070 BKN120
      TEMPO 0322/0402 VRB20G35KT 2SM TSRA BKN040CB
     FM040600 VRB05KT P6SM VCSH SCT050 BKN080
     FM041400 07005KT P6SM BKN050=

USA.gov is the U.S. government's official web portal to all federal, state and local government web resources and services.